Marple, United Kingdom
Current Conditions -  °F | °C
As of 5:50 AM on Sunday 23 Nov 2014 (Local Time) from EGCC Reporting Station
Moderate Rain Moderate Rain  
Wind Chill: 46°   Ceiling: 1000
Heat Index: 46°   Visibility: 3mi
Dew Point: 46°   Wind: 2mph
Humidity: 100%   Direction: 220°SW
Pressure: 30"   Gusts: NA
Location:  53.39°N, 2.06°W
Report Text: EGCC 230550Z 22002KT 5000 RA BKN010 08/08 Q1016 NOSIG
Loading
Personal Weather Stations






























Interactive Weather Map New forecast layout! Learn more

10-Day Weather Forecast

Advertisements
Track Severe Weather on mobile